sensor_id;sensor_type;location;lat;lon;timestamp;pressure;altitude;pressure_sealevel;temperature;humidity
68169;BME280;54981;50.206;15.978;2023-08-06T00:01:28;97812.25;;;14.91;100.00
68169;BME280;54981;50.206;15.978;2023-08-06T00:03:59;97826.25;;;14.95;100.00
68169;BME280;54981;50.206;15.978;2023-08-06T00:06:30;97815.09;;;14.99;100.00
68169;BME280;54981;50.206;15.978;2023-08-06T00:09:00;97820.47;;;14.99;100.00
68169;BME280;54981;50.206;15.978;2023-08-06T00:11:31;97823.84;;;15.01;100.00
68169;BME280;54981;50.206;15.978;2023-08-06T00:14:01;97824.28;;;15.06;100.00
68169;BME280;54981;50.206;15.978;2023-08-06T00:16:31;97826.66;;;15.00;100.00
68169;BME280;54981;50.206;15.978;2023-08-06T00:19:02;97821.59;;;15.06;100.00
68169;BME280;54981;50.206;15.978;2023-08-06T00:21:32;97818.50;;;15.01;100.00
68169;BME280;54981;50.206;15.978;2023-08-06T00:24:03;97816.22;;;15.06;100.00
68169;BME280;54981;50.206;15.978;2023-08-06T00:26:33;97813.38;;;14.98;100.00
68169;BME280;54981;50.206;15.978;2023-08-06T00:29:03;97818.06;;;14.96;100.00
68169;BME280;54981;50.206;15.978;2023-08-06T00:31:34;97807.06;;;14.99;100.00
68169;BME280;54981;50.206;15.978;2023-08-06T00:34:04;97812.25;;;15.01;100.00
68169;BME280;54981;50.206;15.978;2023-08-06T00:36:34;97806.34;;;14.97;100.00
68169;BME280;54981;50.206;15.978;2023-08-06T00:39:05;97796.47;;;14.98;100.00
68169;BME280;54981;50.206;15.978;2023-08-06T00:41:37;97798.84;;;14.91;100.00
68169;BME280;54981;50.206;15.978;2023-08-06T00:44:07;97797.59;;;14.95;100.00
68169;BME280;54981;50.206;15.978;2023-08-06T00:46:37;97797.88;;;14.92;100.00
68169;BME280;54981;50.206;15.978;2023-08-06T00:49:08;97807.06;;;14.89;100.00
68169;BME280;54981;50.206;15.978;2023-08-06T00:51:39;97814.09;;;14.90;100.00
68169;BME280;54981;50.206;15.978;2023-08-06T00:54:09;97814.25;;;14.89;100.00
68169;BME280;54981;50.206;15.978;2023-08-06T00:56:41;97819.31;;;14.82;100.00
68169;BME280;54981;50.206;15.978;2023-08-06T00:59:12;97809.41;;;14.73;100.00
68169;BME280;54981;50.206;15.978;2023-08-06T01:01:43;97801.13;;;14.96;100.00
68169;BME280;54981;50.206;15.978;2023-08-06T01:04:14;97799.84;;;14.90;100.00
68169;BME280;54981;50.206;15.978;2023-08-06T01:06:48;97796.63;;;14.96;100.00
68169;BME280;54981;50.206;15.978;2023-08-06T01:09:57;97796.75;;;14.85;100.00
68169;BME280;54981;50.206;15.978;2023-08-06T01:12:25;97790.97;;;14.89;100.00
68169;BME280;54981;50.206;15.978;2023-08-06T01:15:15;97782.50;;;14.84;100.00
68169;BME280;54981;50.206;15.978;2023-08-06T01:17:48;97778.84;;;14.85;100.00
68169;BME280;54981;50.206;15.978;2023-08-06T01:20:18;97777.00;;;14.86;100.00
68169;BME280;54981;50.206;15.978;2023-08-06T01:22:49;97782.75;;;14.81;100.00
68169;BME280;54981;50.206;15.978;2023-08-06T01:25:19;97776.72;;;14.79;100.00
68169;BME280;54981;50.206;15.978;2023-08-06T01:27:50;97774.47;;;14.75;100.00
68169;BME280;54981;50.206;15.978;2023-08-06T01:30:26;97782.09;;;14.79;100.00
68169;BME280;54981;50.206;15.978;2023-08-06T01:33:00;97775.31;;;14.75;100.00
68169;BME280;54981;50.206;15.978;2023-08-06T01:35:35;97765.28;;;14.77;100.00
68169;BME280;54981;50.206;15.978;2023-08-06T01:38:06;97763.16;;;14.81;100.00
68169;BME280;54981;50.206;15.978;2023-08-06T01:40:37;97767.41;;;14.83;100.00
68169;BME280;54981;50.206;15.978;2023-08-06T01:43:07;97771.63;;;14.86;100.00
68169;BME280;54981;50.206;15.978;2023-08-06T01:45:37;97764.88;;;14.91;100.00
68169;BME280;54981;50.206;15.978;2023-08-06T01:48:08;97759.22;;;14.85;100.00
68169;BME280;54981;50.206;15.978;2023-08-06T01:50:38;97745.41;;;14.80;100.00
68169;BME280;54981;50.206;15.978;2023-08-06T01:53:09;97738.63;;;14.76;100.00
68169;BME280;54981;50.206;15.978;2023-08-06T01:55:39;97731.00;;;14.81;100.00
68169;BME280;54981;50.206;15.978;2023-08-06T01:58:09;97727.91;;;14.76;100.00
68169;BME280;54981;50.206;15.978;2023-08-06T02:00:40;97725.66;;;14.81;100.00
68169;BME280;54981;50.206;15.978;2023-08-06T02:03:11;97728.34;;;14.81;100.00
68169;BME280;54981;50.206;15.978;2023-08-06T02:05:41;97714.50;;;14.85;100.00
68169;BME280;54981;50.206;15.978;2023-08-06T02:08:11;97707.91;;;14.80;100.00
68169;BME280;54981;50.206;15.978;2023-08-06T02:10:42;97709.16;;;14.85;100.00
68169;BME280;54981;50.206;15.978;2023-08-06T02:13:12;97708.88;;;14.79;100.00
68169;BME280;54981;50.206;15.978;2023-08-06T02:15:43;97712.41;;;14.79;100.00
68169;BME280;54981;50.206;15.978;2023-08-06T02:18:14;97713.69;;;14.85;100.00
68169;BME280;54981;50.206;15.978;2023-08-06T02:20:58;97710.88;;;14.86;100.00
68169;BME280;54981;50.206;15.978;2023-08-06T02:23:29;97701.25;;;14.84;100.00
68169;BME280;54981;50.206;15.978;2023-08-06T02:26:01;97688.72;;;14.84;100.00
68169;BME280;54981;50.206;15.978;2023-08-06T02:28:31;97678.00;;;14.84;100.00
68169;BME280;54981;50.206;15.978;2023-08-06T02:31:02;97664.72;;;14.83;100.00
68169;BME280;54981;50.206;15.978;2023-08-06T02:33:32;97656.81;;;14.81;100.00
68169;BME280;54981;50.206;15.978;2023-08-06T02:36:03;97661.34;;;14.81;100.00
68169;BME280;54981;50.206;15.978;2023-08-06T02:38:34;60100.03;;;-145.37;100.00
68169;BME280;54981;50.206;15.978;2023-08-06T02:41:05;60100.03;;;-145.37;100.00
68169;BME280;54981;50.206;15.978;2023-08-06T02:43:35;60100.03;;;-145.37;100.00
68169;BME280;54981;50.206;15.978;2023-08-06T02:46:05;60100.03;;;-145.37;100.00
68169;BME280;54981;50.206;15.978;2023-08-06T02:48:36;60100.03;;;-145.37;100.00
68169;BME280;54981;50.206;15.978;2023-08-06T02:51:06;60100.03;;;-145.37;100.00
68169;BME280;54981;50.206;15.978;2023-08-06T02:53:36;60100.03;;;-145.37;100.00
68169;BME280;54981;50.206;15.978;2023-08-06T02:56:07;60100.03;;;-145.37;100.00
68169;BME280;54981;50.206;15.978;2023-08-06T02:58:37;60100.03;;;-145.37;100.00
68169;BME280;54981;50.206;15.978;2023-08-06T03:01:07;60100.03;;;-145.37;100.00
68169;BME280;54981;50.206;15.978;2023-08-06T03:03:38;60100.03;;;-145.37;100.00
68169;BME280;54981;50.206;15.978;2023-08-06T03:06:08;60100.03;;;-145.37;100.00
68169;BME280;54981;50.206;15.978;2023-08-06T03:08:38;60100.03;;;-145.37;100.00
68169;BME280;54981;50.206;15.978;2023-08-06T03:11:09;60100.03;;;-145.37;100.00
68169;BME280;54981;50.206;15.978;2023-08-06T03:13:39;60100.03;;;-145.37;100.00
68169;BME280;54981;50.206;15.978;2023-08-06T03:16:09;60100.03;;;-145.37;100.00
68169;BME280;54981;50.206;15.978;2023-08-06T03:18:40;60100.03;;;-145.37;100.00
68169;BME280;54981;50.206;15.978;2023-08-06T03:21:10;60100.03;;;-145.37;100.00
68169;BME280;54981;50.206;15.978;2023-08-06T03:23:41;60100.03;;;-145.37;100.00
68169;BME280;54981;50.206;15.978;2023-08-06T03:26:11;60100.03;;;-145.37;100.00
68169;BME280;54981;50.206;15.978;2023-08-06T03:28:41;60100.03;;;-145.37;100.00
68169;BME280;54981;50.206;15.978;2023-08-06T03:31:12;60100.03;;;-145.37;100.00
68169;BME280;54981;50.206;15.978;2023-08-06T03:33:42;60100.03;;;-145.37;100.00
68169;BME280;54981;50.206;15.978;2023-08-06T03:36:12;60100.03;;;-145.37;100.00
68169;BME280;54981;50.206;15.978;2023-08-06T03:38:43;60100.03;;;-145.37;100.00
68169;BME280;54981;50.206;15.978;2023-08-06T03:41:13;60100.03;;;-145.37;100.00
68169;BME280;54981;50.206;15.978;2023-08-06T03:43:43;60100.03;;;-145.37;100.00
68169;BME280;54981;50.206;15.978;2023-08-06T03:46:14;60100.03;;;-145.37;100.00
68169;BME280;54981;50.206;15.978;2023-08-06T03:48:44;60100.03;;;-145.37;100.00
68169;BME280;54981;50.206;15.978;2023-08-06T03:51:14;60100.03;;;-145.37;100.00
68169;BME280;54981;50.206;15.978;2023-08-06T03:53:45;60100.03;;;-145.37;100.00
68169;BME280;54981;50.206;15.978;2023-08-06T03:56:15;60100.03;;;-145.37;100.00
68169;BME280;54981;50.206;15.978;2023-08-06T03:58:46;60100.03;;;-145.37;100.00
68169;BME280;54981;50.206;15.978;2023-08-06T04:01:16;60100.03;;;-145.37;100.00
68169;BME280;54981;50.206;15.978;2023-08-06T04:03:46;60100.03;;;-145.37;100.00
68169;BME280;54981;50.206;15.978;2023-08-06T04:06:17;60100.03;;;-145.37;100.00
68169;BME280;54981;50.206;15.978;2023-08-06T04:08:47;60100.03;;;-145.37;100.00
68169;BME280;54981;50.206;15.978;2023-08-06T04:11:17;60100.03;;;-145.37;100.00
68169;BME280;54981;50.206;15.978;2023-08-06T04:13:48;60100.03;;;-145.37;100.00
68169;BME280;54981;50.206;15.978;2023-08-06T04:16:18;60100.03;;;-145.37;100.00
68169;BME280;54981;50.206;15.978;2023-08-06T04:18:48;60100.03;;;-145.37;100.00
68169;BME280;54981;50.206;15.978;2023-08-06T04:21:19;60100.03;;;-145.37;100.00
68169;BME280;54981;50.206;15.978;2023-08-06T04:23:49;60100.03;;;-145.37;100.00
68169;BME280;54981;50.206;15.978;2023-08-06T04:26:20;60100.03;;;-145.37;100.00
68169;BME280;54981;50.206;15.978;2023-08-06T04:28:50;60100.03;;;-145.37;100.00
68169;BME280;54981;50.206;15.978;2023-08-06T04:31:21;60100.03;;;-145.37;100.00
68169;BME280;54981;50.206;15.978;2023-08-06T04:33:53;60100.03;;;-145.37;100.00
68169;BME280;54981;50.206;15.978;2023-08-06T04:36:23;60100.03;;;-145.37;100.00
68169;BME280;54981;50.206;15.978;2023-08-06T04:38:54;60100.03;;;-145.37;100.00
68169;BME280;54981;50.206;15.978;2023-08-06T04:41:24;60100.03;;;-145.37;100.00
68169;BME280;54981;50.206;15.978;2023-08-06T04:43:56;60100.03;;;-145.37;100.00
68169;BME280;54981;50.206;15.978;2023-08-06T04:46:27;60100.03;;;-145.37;100.00
68169;BME280;54981;50.206;15.978;2023-08-06T04:48:57;60100.03;;;-145.37;100.00
68169;BME280;54981;50.206;15.978;2023-08-06T04:51:27;60100.03;;;-145.37;100.00
68169;BME280;54981;50.206;15.978;2023-08-06T04:53:58;60100.03;;;-145.37;100.00
68169;BME280;54981;50.206;15.978;2023-08-06T04:56:28;60100.03;;;-145.37;100.00
68169;BME280;54981;50.206;15.978;2023-08-06T04:58:59;60100.03;;;-145.37;100.00
68169;BME280;54981;50.206;15.978;2023-08-06T05:01:29;60100.03;;;-145.37;100.00
68169;BME280;54981;50.206;15.978;2023-08-06T05:04:00;60100.03;;;-145.37;100.00
68169;BME280;54981;50.206;15.978;2023-08-06T05:06:30;60100.03;;;-145.37;100.00
68169;BME280;54981;50.206;15.978;2023-08-06T05:09:00;60100.03;;;-145.37;100.00
68169;BME280;54981;50.206;15.978;2023-08-06T05:11:31;60100.03;;;-145.37;100.00
68169;BME280;54981;50.206;15.978;2023-08-06T05:14:01;60100.03;;;-145.37;100.00
68169;BME280;54981;50.206;15.978;2023-08-06T05:16:31;60100.03;;;-145.37;100.00
68169;BME280;54981;50.206;15.978;2023-08-06T05:19:02;60100.03;;;-145.37;100.00
68169;BME280;54981;50.206;15.978;2023-08-06T05:21:32;60100.03;;;-145.37;100.00
68169;BME280;54981;50.206;15.978;2023-08-06T05:24:03;60100.03;;;-145.37;100.00
68169;BME280;54981;50.206;15.978;2023-08-06T05:26:33;60100.03;;;-145.37;100.00
68169;BME280;54981;50.206;15.978;2023-08-06T05:29:03;60100.03;;;-145.37;100.00
68169;BME280;54981;50.206;15.978;2023-08-06T05:31:34;60100.03;;;-145.37;100.00
68169;BME280;54981;50.206;15.978;2023-08-06T05:34:04;60100.03;;;-145.37;100.00
68169;BME280;54981;50.206;15.978;2023-08-06T05:36:34;60100.03;;;-145.37;100.00
68169;BME280;54981;50.206;15.978;2023-08-06T05:39:05;60100.03;;;-145.37;100.00
68169;BME280;54981;50.206;15.978;2023-08-06T05:41:35;60100.03;;;-145.37;100.00
68169;BME280;54981;50.206;15.978;2023-08-06T05:44:05;60100.03;;;-145.37;100.00
68169;BME280;54981;50.206;15.978;2023-08-06T05:46:36;60100.03;;;-145.37;100.00
68169;BME280;54981;50.206;15.978;2023-08-06T05:49:06;60100.03;;;-145.37;100.00
68169;BME280;54981;50.206;15.978;2023-08-06T05:51:37;60100.03;;;-145.37;100.00
68169;BME280;54981;50.206;15.978;2023-08-06T05:54:07;60100.03;;;-145.37;100.00
68169;BME280;54981;50.206;15.978;2023-08-06T05:56:38;60100.03;;;-145.37;100.00
68169;BME280;54981;50.206;15.978;2023-08-06T05:59:08;60100.03;;;-145.37;100.00
68169;BME280;54981;50.206;15.978;2023-08-06T06:01:38;60100.03;;;-145.37;100.00
68169;BME280;54981;50.206;15.978;2023-08-06T06:04:09;60100.03;;;-145.37;100.00
68169;BME280;54981;50.206;15.978;2023-08-06T06:06:39;60100.03;;;-145.37;100.00
68169;BME280;54981;50.206;15.978;2023-08-06T06:09:11;60100.03;;;-145.37;100.00
68169;BME280;54981;50.206;15.978;2023-08-06T06:11:42;60100.03;;;-145.37;100.00
68169;BME280;54981;50.206;15.978;2023-08-06T06:14:12;60100.03;;;-145.37;100.00
68169;BME280;54981;50.206;15.978;2023-08-06T06:16:42;60100.03;;;-145.37;100.00
68169;BME280;54981;50.206;15.978;2023-08-06T06:19:13;60100.03;;;-145.37;100.00
68169;BME280;54981;50.206;15.978;2023-08-06T06:21:43;60100.03;;;-145.37;100.00
68169;BME280;54981;50.206;15.978;2023-08-06T06:24:14;60100.03;;;-145.37;100.00
68169;BME280;54981;50.206;15.978;2023-08-06T06:26:44;60100.03;;;-145.37;100.00
68169;BME280;54981;50.206;15.978;2023-08-06T06:29:14;60100.03;;;-145.37;100.00
68169;BME280;54981;50.206;15.978;2023-08-06T06:31:45;60100.03;;;-145.37;100.00
68169;BME280;54981;50.206;15.978;2023-08-06T06:34:15;60100.03;;;-145.37;100.00
68169;BME280;54981;50.206;15.978;2023-08-06T06:36:45;60100.03;;;-145.37;100.00
68169;BME280;54981;50.206;15.978;2023-08-06T06:39:17;60100.03;;;-145.37;100.00
68169;BME280;54981;50.206;15.978;2023-08-06T06:41:48;60100.03;;;-145.37;100.00
68169;BME280;54981;50.206;15.978;2023-08-06T06:44:18;60100.03;;;-145.37;100.00
68169;BME280;54981;50.206;15.978;2023-08-06T06:46:50;60100.03;;;-145.37;100.00
68169;BME280;54981;50.206;15.978;2023-08-06T06:49:20;60100.03;;;-145.37;100.00
68169;BME280;54981;50.206;15.978;2023-08-06T06:51:52;60100.03;;;-145.37;100.00
68169;BME280;54981;50.206;15.978;2023-08-06T06:54:22;60100.03;;;-145.37;100.00
68169;BME280;54981;50.206;15.978;2023-08-06T06:56:53;60100.03;;;-145.37;100.00
68169;BME280;54981;50.206;15.978;2023-08-06T06:59:23;60100.03;;;-145.37;100.00
68169;BME280;54981;50.206;15.978;2023-08-06T07:01:53;60100.03;;;-145.37;100.00
68169;BME280;54981;50.206;15.978;2023-08-06T07:04:24;60100.03;;;-145.37;100.00
68169;BME280;54981;50.206;15.978;2023-08-06T07:06:54;60100.03;;;-145.37;100.00
68169;BME280;54981;50.206;15.978;2023-08-06T07:09:24;60100.03;;;-145.37;100.00
68169;BME280;54981;50.206;15.978;2023-08-06T07:11:55;60100.03;;;-145.37;100.00
68169;BME280;54981;50.206;15.978;2023-08-06T07:14:25;60100.03;;;-145.37;100.00
68169;BME280;54981;50.206;15.978;2023-08-06T07:16:56;60100.03;;;-145.37;100.00
68169;BME280;54981;50.206;15.978;2023-08-06T07:19:26;60100.03;;;-145.37;100.00
68169;BME280;54981;50.206;15.978;2023-08-06T07:21:56;60100.03;;;-145.37;100.00
68169;BME280;54981;50.206;15.978;2023-08-06T07:24:27;60100.03;;;-145.37;100.00
68169;BME280;54981;50.206;15.978;2023-08-06T07:26:57;60100.03;;;-145.37;100.00
68169;BME280;54981;50.206;15.978;2023-08-06T07:29:28;60100.03;;;-145.37;100.00
68169;BME280;54981;50.206;15.978;2023-08-06T07:31:58;60100.03;;;-145.37;100.00
68169;BME280;54981;50.206;15.978;2023-08-06T07:34:28;60100.03;;;-145.37;100.00
68169;BME280;54981;50.206;15.978;2023-08-06T07:36:59;60100.03;;;-145.37;100.00
68169;BME280;54981;50.206;15.978;2023-08-06T07:39:29;60100.03;;;-145.37;100.00
68169;BME280;54981;50.206;15.978;2023-08-06T07:42:00;60100.03;;;-145.37;100.00
68169;BME280;54981;50.206;15.978;2023-08-06T07:44:32;60100.03;;;-145.37;100.00
68169;BME280;54981;50.206;15.978;2023-08-06T07:47:03;60100.03;;;-145.37;100.00
68169;BME280;54981;50.206;15.978;2023-08-06T07:49:33;60100.03;;;-145.37;100.00
68169;BME280;54981;50.206;15.978;2023-08-06T07:52:04;60100.03;;;-145.37;100.00
68169;BME280;54981;50.206;15.978;2023-08-06T07:54:34;60100.03;;;-145.37;100.00
68169;BME280;54981;50.206;15.978;2023-08-06T07:57:05;60100.03;;;-145.37;100.00
68169;BME280;54981;50.206;15.978;2023-08-06T07:59:35;60100.03;;;-145.37;100.00
68169;BME280;54981;50.206;15.978;2023-08-06T08:02:06;60100.03;;;-145.37;100.00
68169;BME280;54981;50.206;15.978;2023-08-06T08:04:36;60100.03;;;-145.37;100.00
68169;BME280;54981;50.206;15.978;2023-08-06T08:07:06;60100.03;;;-145.37;100.00
68169;BME280;54981;50.206;15.978;2023-08-06T08:09:37;60100.03;;;-145.37;100.00
68169;BME280;54981;50.206;15.978;2023-08-06T08:12:07;60100.03;;;-145.37;100.00
68169;BME280;54981;50.206;15.978;2023-08-06T08:14:38;60100.03;;;-145.37;100.00
68169;BME280;54981;50.206;15.978;2023-08-06T08:17:08;60100.03;;;-145.37;100.00
68169;BME280;54981;50.206;15.978;2023-08-06T08:19:40;60100.03;;;-145.37;100.00
68169;BME280;54981;50.206;15.978;2023-08-06T08:22:10;60100.03;;;-145.37;100.00
68169;BME280;54981;50.206;15.978;2023-08-06T08:24:41;60100.03;;;-145.37;100.00
68169;BME280;54981;50.206;15.978;2023-08-06T08:27:11;60100.03;;;-145.37;100.00
68169;BME280;54981;50.206;15.978;2023-08-06T08:29:42;60100.03;;;-145.37;100.00
68169;BME280;54981;50.206;15.978;2023-08-06T08:32:12;60100.03;;;-145.37;100.00
68169;BME280;54981;50.206;15.978;2023-08-06T08:34:42;60100.03;;;-145.37;100.00
68169;BME280;54981;50.206;15.978;2023-08-06T08:37:14;60100.03;;;-145.37;100.00
68169;BME280;54981;50.206;15.978;2023-08-06T08:39:44;60100.03;;;-145.37;100.00
68169;BME280;54981;50.206;15.978;2023-08-06T08:42:15;60100.03;;;-145.37;100.00
68169;BME280;54981;50.206;15.978;2023-08-06T08:44:45;60100.03;;;-145.37;100.00
68169;BME280;54981;50.206;15.978;2023-08-06T08:47:16;60100.03;;;-145.37;100.00
68169;BME280;54981;50.206;15.978;2023-08-06T08:49:47;60100.03;;;-145.37;100.00
68169;BME280;54981;50.206;15.978;2023-08-06T08:52:18;60100.03;;;-145.37;100.00
68169;BME280;54981;50.206;15.978;2023-08-06T08:54:51;60100.03;;;-145.37;100.00
68169;BME280;54981;50.206;15.978;2023-08-06T08:57:23;60100.03;;;-145.37;100.00
68169;BME280;54981;50.206;15.978;2023-08-06T08:59:53;60100.03;;;-145.37;100.00
68169;BME280;54981;50.206;15.978;2023-08-06T09:02:25;60100.03;;;-145.37;100.00
68169;BME280;54981;50.206;15.978;2023-08-06T09:04:59;60100.03;;;-145.37;100.00
68169;BME280;54981;50.206;15.978;2023-08-06T09:07:35;60100.03;;;-145.37;100.00
68169;BME280;54981;50.206;15.978;2023-08-06T09:10:11;60100.03;;;-145.37;100.00
68169;BME280;54981;50.206;15.978;2023-08-06T09:12:44;60100.03;;;-145.37;100.00
68169;BME280;54981;50.206;15.978;2023-08-06T09:15:15;60100.03;;;-145.37;100.00
68169;BME280;54981;50.206;15.978;2023-08-06T09:17:45;60100.03;;;-145.37;100.00
68169;BME280;54981;50.206;15.978;2023-08-06T09:20:16;60100.03;;;-145.37;100.00
68169;BME280;54981;50.206;15.978;2023-08-06T09:22:46;60100.03;;;-145.37;100.00
68169;BME280;54981;50.206;15.978;2023-08-06T09:25:23;60100.03;;;-145.37;100.00
68169;BME280;54981;50.206;15.978;2023-08-06T09:27:54;60100.03;;;-145.37;100.00
68169;BME280;54981;50.206;15.978;2023-08-06T09:30:33;60100.03;;;-145.37;100.00
68169;BME280;54981;50.206;15.978;2023-08-06T09:33:08;60100.03;;;-145.37;100.00
68169;BME280;54981;50.206;15.978;2023-08-06T09:35:43;60100.03;;;-145.37;100.00
68169;BME280;54981;50.206;15.978;2023-08-06T09:38:13;60100.03;;;-145.37;100.00
68169;BME280;54981;50.206;15.978;2023-08-06T09:40:43;60100.03;;;-145.37;100.00
68169;BME280;54981;50.206;15.978;2023-08-06T09:43:14;60100.03;;;-145.37;100.00
68169;BME280;54981;50.206;15.978;2023-08-06T09:45:44;60100.03;;;-145.37;100.00
68169;BME280;54981;50.206;15.978;2023-08-06T09:48:15;60100.03;;;-145.37;100.00
68169;BME280;54981;50.206;15.978;2023-08-06T09:50:45;60100.03;;;-145.37;100.00
68169;BME280;54981;50.206;15.978;2023-08-06T09:53:18;60100.03;;;-145.37;100.00
68169;BME280;54981;50.206;15.978;2023-08-06T09:55:50;60100.03;;;-145.37;100.00
68169;BME280;54981;50.206;15.978;2023-08-06T09:58:21;60100.03;;;-145.37;100.00
68169;BME280;54981;50.206;15.978;2023-08-06T10:00:53;60100.03;;;-145.37;100.00
68169;BME280;54981;50.206;15.978;2023-08-06T10:03:24;60100.03;;;-145.37;100.00
68169;BME280;54981;50.206;15.978;2023-08-06T10:05:55;60100.03;;;-145.37;100.00
68169;BME280;54981;50.206;15.978;2023-08-06T10:08:26;60100.03;;;-145.37;100.00
68169;BME280;54981;50.206;15.978;2023-08-06T10:10:57;60100.03;;;-145.37;100.00
68169;BME280;54981;50.206;15.978;2023-08-06T10:13:28;60100.03;;;-145.37;100.00
68169;BME280;54981;50.206;15.978;2023-08-06T10:15:59;60100.03;;;-145.37;100.00
68169;BME280;54981;50.206;15.978;2023-08-06T10:18:29;60100.03;;;-145.37;100.00
68169;BME280;54981;50.206;15.978;2023-08-06T10:21:00;60100.03;;;-145.37;100.00
68169;BME280;54981;50.206;15.978;2023-08-06T10:23:35;60100.03;;;-145.37;100.00
68169;BME280;54981;50.206;15.978;2023-08-06T10:26:07;60100.03;;;-145.37;100.00
68169;BME280;54981;50.206;15.978;2023-08-06T10:28:39;60100.03;;;-145.37;100.00
68169;BME280;54981;50.206;15.978;2023-08-06T10:31:09;60100.03;;;-145.37;100.00
68169;BME280;54981;50.206;15.978;2023-08-06T10:33:44;60100.03;;;-145.37;100.00
68169;BME280;54981;50.206;15.978;2023-08-06T10:36:15;60100.03;;;-145.37;100.00
68169;BME280;54981;50.206;15.978;2023-08-06T10:38:50;60100.03;;;-145.37;100.00
68169;BME280;54981;50.206;15.978;2023-08-06T10:41:28;60100.03;;;-145.37;100.00
68169;BME280;54981;50.206;15.978;2023-08-06T10:44:06;60100.03;;;-145.37;100.00
68169;BME280;54981;50.206;15.978;2023-08-06T10:46:39;60100.03;;;-145.37;100.00
68169;BME280;54981;50.206;15.978;2023-08-06T10:49:11;60100.03;;;-145.37;100.00
68169;BME280;54981;50.206;15.978;2023-08-06T10:51:41;60100.03;;;-145.37;100.00
68169;BME280;54981;50.206;15.978;2023-08-06T10:54:12;60100.03;;;-145.37;100.00
68169;BME280;54981;50.206;15.978;2023-08-06T10:56:42;60100.03;;;-145.37;100.00
68169;BME280;54981;50.206;15.978;2023-08-06T10:59:15;60100.03;;;-145.37;100.00
68169;BME280;54981;50.206;15.978;2023-08-06T11:02:05;60100.03;;;-145.37;100.00
68169;BME280;54981;50.206;15.978;2023-08-06T11:04:39;60100.03;;;-145.37;100.00
68169;BME280;54981;50.206;15.978;2023-08-06T11:07:09;60100.03;;;-145.37;100.00
68169;BME280;54981;50.206;15.978;2023-08-06T11:09:40;60100.03;;;-145.37;100.00
68169;BME280;54981;50.206;15.978;2023-08-06T11:12:11;60100.03;;;-145.37;100.00
68169;BME280;54981;50.206;15.978;2023-08-06T11:14:41;60100.03;;;-145.37;100.00
68169;BME280;54981;50.206;15.978;2023-08-06T11:17:11;60100.03;;;-145.37;100.00
68169;BME280;54981;50.206;15.978;2023-08-06T11:19:42;60100.03;;;-145.37;100.00
68169;BME280;54981;50.206;15.978;2023-08-06T11:22:14;60100.03;;;-145.37;100.00
68169;BME280;54981;50.206;15.978;2023-08-06T11:24:45;60100.03;;;-145.37;100.00
68169;BME280;54981;50.206;15.978;2023-08-06T11:27:16;60100.03;;;-145.37;100.00
68169;BME280;54981;50.206;15.978;2023-08-06T11:29:47;60100.03;;;-145.37;100.00
68169;BME280;54981;50.206;15.978;2023-08-06T11:32:17;60100.03;;;-145.37;100.00
68169;BME280;54981;50.206;15.978;2023-08-06T11:34:47;60100.03;;;-145.37;100.00
68169;BME280;54981;50.206;15.978;2023-08-06T11:37:21;60100.03;;;-145.37;100.00
68169;BME280;54981;50.206;15.978;2023-08-06T11:39:53;60100.03;;;-145.37;100.00
68169;BME280;54981;50.206;15.978;2023-08-06T11:42:23;60100.03;;;-145.37;100.00
68169;BME280;54981;50.206;15.978;2023-08-06T11:44:56;60100.03;;;-145.37;100.00
68169;BME280;54981;50.206;15.978;2023-08-06T11:47:27;60100.03;;;-145.37;100.00
68169;BME280;54981;50.206;15.978;2023-08-06T11:49:59;60100.03;;;-145.37;100.00
68169;BME280;54981;50.206;15.978;2023-08-06T11:52:30;60100.03;;;-145.37;100.00
68169;BME280;54981;50.206;15.978;2023-08-06T11:57:38;60100.03;;;-145.37;100.00
68169;BME280;54981;50.206;15.978;2023-08-06T12:00:12;60100.03;;;-145.37;100.00
68169;BME280;54981;50.206;15.978;2023-08-06T12:02:44;60100.03;;;-145.37;100.00
68169;BME280;54981;50.206;15.978;2023-08-06T12:05:16;60100.03;;;-145.37;100.00
68169;BME280;54981;50.206;15.978;2023-08-06T12:07:48;60100.03;;;-145.37;100.00
68169;BME280;54981;50.206;15.978;2023-08-06T12:10:19;60100.03;;;-145.37;100.00
68169;BME280;54981;50.206;15.978;2023-08-06T12:12:51;60100.03;;;-145.37;100.00
68169;BME280;54981;50.206;15.978;2023-08-06T12:15:22;60100.03;;;-145.37;100.00
68169;BME280;54981;50.206;15.978;2023-08-06T12:17:53;60100.03;;;-145.37;100.00
68169;BME280;54981;50.206;15.978;2023-08-06T12:20:24;60100.03;;;-145.37;100.00
68169;BME280;54981;50.206;15.978;2023-08-06T12:22:54;60100.03;;;-145.37;100.00
68169;BME280;54981;50.206;15.978;2023-08-06T12:25:24;60100.03;;;-145.37;100.00
68169;BME280;54981;50.206;15.978;2023-08-06T12:27:55;60100.03;;;-145.37;100.00
68169;BME280;54981;50.206;15.978;2023-08-06T12:30:25;60100.03;;;-145.37;100.00
68169;BME280;54981;50.206;15.978;2023-08-06T12:32:56;60100.03;;;-145.37;100.00
68169;BME280;54981;50.206;15.978;2023-08-06T12:35:26;60100.03;;;-145.37;100.00
68169;BME280;54981;50.206;15.978;2023-08-06T12:37:56;60100.03;;;-145.37;100.00
68169;BME280;54981;50.206;15.978;2023-08-06T12:40:27;60100.03;;;-145.37;100.00
68169;BME280;54981;50.206;15.978;2023-08-06T12:42:57;60100.03;;;-145.37;100.00
68169;BME280;54981;50.206;15.978;2023-08-06T12:45:29;60100.03;;;-145.37;100.00
68169;BME280;54981;50.206;15.978;2023-08-06T12:47:59;60100.03;;;-145.37;100.00